Time;durP1;ratioP1;P1;durP2;ratioP2;P2;SDS_P1;SDS_P2;PMS_P1;PMS_P2;Temp;Humidity;BMP_temperature;BMP_pressure;BME280_temperature;BME280_humidity;BME280_pressure;Samples;Min_cycle;Max_cycle;Signal;HPM_P1;HPM_P2
2021/12/05 00:22:45;;;;;;;10.05;5.03;;;;;;;6.36;82.48;99648.31;5074627;28;20507;-21
2021/12/05 00:25:13;;;;;;;9.82;5.15;;;;;;;6.38;82.51;99643.63;5091366;28;20035;-21
2021/12/05 00:27:46;;;;;;;10.60;5.38;;;;;;;6.43;81.83;99641.19;5090826;28;20032;-20
2021/12/05 00:33:04;;;;;;;9.68;5.53;;;;;;;6.86;80.38;99654.03;5091145;28;20123;-21
2021/12/05 00:39:00;;;;;;;18.00;8.65;;;;;;;6.66;81.12;99645.28;5081216;28;20411;-20
2021/12/05 00:48:43;;;;;;;10.30;5.07;;;;;;;6.50;82.70;99657.91;5078436;28;20047;-20
2021/12/05 00:57:06;;;;;;;21.02;9.70;;;;;;;6.12;84.41;99660.28;5070551;28;20105;-20
2021/12/05 00:59:19;;;;;;;24.23;11.85;;;;;;;6.28;83.97;99659.91;5068879;28;20051;-20
2021/12/05 01:12:43;;;;;;;13.98;6.20;;;;;;;6.11;85.83;99642.75;5080348;28;20035;-20
2021/12/05 01:15:11;;;;;;;17.25;8.50;;;;;;;6.18;85.00;99643.59;5080250;28;20522;-20
2021/12/05 01:17:55;;;;;;;13.25;6.45;;;;;;;6.14;85.19;99623.84;5080363;28;20031;-22
2021/12/05 01:20:21;;;;;;;19.65;9.75;;;;;;;6.55;83.79;99639.56;5080225;28;20790;-20
2021/12/05 01:22:54;;;;;;;22.70;10.85;;;;;;;6.32;84.86;99637.31;5079023;28;20027;-22
2021/12/05 01:25:37;;;;;;;19.70;11.63;;;;;;;6.31;84.30;99633.00;5075078;28;20043;-20
2021/12/05 01:28:13;;;;;;;9.73;5.93;;;;;;;6.30;85.01;99635.88;5069600;28;20025;-20
2021/12/05 01:30:49;;;;;;;14.75;10.85;;;;;;;6.33;84.85;99643.41;5069704;28;20166;-21
2021/12/05 01:33:26;;;;;;;12.73;8.07;;;;;;;6.38;84.45;99633.84;5069491;28;20112;-20
2021/12/05 01:36:13;;;;;;;13.10;8.00;;;;;;;6.19;85.25;99619.56;5053327;28;20499;-21
2021/12/05 01:46:35;;;;;;;14.02;8.93;;;;;;;6.48;84.23;99627.31;5069092;28;20033;-20
2021/12/05 02:32:13;;;;;;;7.93;3.97;;;;;;;6.16;83.29;99577.59;5068600;28;20457;-20
2021/12/05 02:43:07;;;;;;;10.57;7.68;;;;;;;6.61;81.01;99592.91;5068247;28;20036;-20
2021/12/05 02:45:33;;;;;;;10.48;6.95;;;;;;;6.90;80.22;99577.59;5067735;28;20044;-20
2021/12/05 02:47:58;;;;;;;8.50;5.38;;;;;;;6.75;80.57;99578.63;5068442;28;20032;-20
2021/12/05 02:50:26;;;;;;;8.98;4.28;;;;;;;7.00;80.24;99584.09;5050334;28;20036;-20
2021/12/05 02:52:56;;;;;;;6.33;3.73;;;;;;;6.81;80.34;99577.00;5050156;28;20036;-20
2021/12/05 02:55:30;;;;;;;8.23;4.82;;;;;;;6.66;81.69;99585.16;5067861;28;20119;-20
2021/12/05 02:58:00;;;;;;;7.47;4.28;;;;;;;6.49;82.20;99586.59;5068000;28;20056;-20
2021/12/05 03:00:42;;;;;;;6.85;3.50;;;;;;;6.64;82.04;99581.91;5068103;28;20488;-20
2021/12/05 03:03:24;;;;;;;6.72;3.58;;;;;;;6.58;81.85;99582.72;5068131;28;20036;-20
2021/12/05 03:05:54;;;;;;;6.65;4.47;;;;;;;6.67;82.12;99588.63;5068356;28;20036;-20
2021/12/05 03:08:20;;;;;;;8.80;4.55;;;;;;;6.73;81.21;99585.16;5067925;28;20033;-20
2021/12/05 03:10:45;;;;;;;6.93;4.35;;;;;;;6.62;81.98;99581.31;5067917;28;20024;-20
2021/12/05 03:13:11;;;;;;;6.93;3.72;;;;;;;6.83;81.43;99586.38;5067430;28;20119;-20
2021/12/05 03:15:36;;;;;;;6.32;3.60;;;;;;;6.75;81.15;99554.78;5067663;28;20456;-20
2021/12/05 03:18:02;;;;;;;7.25;4.03;;;;;;;6.82;81.63;99582.09;5068125;28;20032;-20
2021/12/05 03:20:28;;;;;;;6.97;4.40;;;;;;;6.69;82.26;99584.75;5067791;28;20033;-20
2021/12/05 03:22:53;;;;;;;7.82;4.53;;;;;;;6.94;81.91;99574.31;5067763;28;20408;-20
2021/12/05 03:25:19;;;;;;;8.98;4.70;;;;;;;6.71;82.87;99573.94;5049560;28;20033;-20
2021/12/05 03:27:44;;;;;;;7.80;4.72;;;;;;;6.77;82.50;99573.13;5049879;28;20557;-20
2021/12/05 03:30:12;;;;;;;8.07;4.22;;;;;;;6.40;82.87;99570.91;5067961;28;20119;-20
2021/12/05 03:32:37;;;;;;;9.30;5.63;;;;;;;6.26;82.90;99582.50;5067598;28;20093;-20
2021/12/05 03:35:04;;;;;;;7.03;4.05;;;;;;;6.29;83.74;99587.38;5067936;28;20032;-20
2021/12/05 03:37:30;;;;;;;7.68;4.10;;;;;;;6.30;83.82;99561.75;5049637;28;20181;-20
2021/12/05 03:39:55;;;;;;;6.85;4.03;;;;;;;6.36;82.41;99577.63;5067906;28;20793;-20
2021/12/05 03:42:20;;;;;;;6.80;4.00;;;;;;;6.35;82.26;99581.28;5067619;28;20029;-21
2021/12/05 03:44:46;;;;;;;7.00;3.83;;;;;;;6.39;83.48;99569.25;5067765;28;20032;-20
2021/12/05 03:47:11;;;;;;;7.50;4.47;;;;;;;6.24;82.84;99561.50;5067558;28;20033;-20
2021/12/05 03:49:37;;;;;;;6.45;3.85;;;;;;;6.17;83.10;99568.66;5068653;28;20404;-20
2021/12/05 03:52:09;;;;;;;7.63;4.35;;;;;;;6.17;83.46;99570.47;5071439;28;20055;-21
2021/12/05 03:54:35;;;;;;;7.45;3.90;;;;;;;6.30;83.32;99588.22;5071881;28;20057;-20
2021/12/05 03:57:00;;;;;;;8.73;4.57;;;;;;;6.66;82.89;99581.69;5071538;28;20142;-20
2021/12/05 03:59:28;;;;;;;7.38;4.57;;;;;;;6.73;83.10;99585.97;5070969;28;20035;-20
2021/12/05 04:01:54;;;;;;;10.55;4.63;;;;;;;6.70;82.47;99578.44;5071252;28;20024;-20
2021/12/05 04:04:20;;;;;;;7.00;4.32;;;;;;;6.70;82.33;99594.34;5071222;28;20048;-20
2021/12/05 04:06:46;;;;;;;6.85;4.05;;;;;;;6.82;81.40;99597.16;5070982;28;20033;-20
2021/12/05 04:09:12;;;;;;;7.07;4.38;;;;;;;6.87;80.62;99605.31;5053249;28;20648;-20
2021/12/05 04:11:41;;;;;;;8.38;4.70;;;;;;;6.66;81.70;99571.09;5070771;28;20032;-20
2021/12/05 04:14:09;;;;;;;8.63;4.75;;;;;;;6.88;80.19;99579.63;5070800;28;20068;-20
2021/12/05 04:16:35;;;;;;;10.00;5.80;;;;;;;6.92;79.98;99575.53;5071017;28;20047;-20
2021/12/05 04:19:01;;;;;;;11.73;5.93;;;;;;;7.06;79.13;99587.75;5071004;28;20036;-21
2021/12/05 04:21:26;;;;;;;9.88;5.88;;;;;;;6.68;80.60;99601.69;5070519;28;20115;-20
2021/12/05 04:23:52;;;;;;;10.10;5.93;;;;;;;6.96;79.95;99603.25;5070660;28;20082;-20
2021/12/05 04:26:17;;;;;;;9.02;6.20;;;;;;;7.06;79.73;99595.69;5070861;28;20118;-20
2021/12/05 04:28:47;;;;;;;9.27;5.07;;;;;;;6.73;79.19;99599.22;5070695;28;20482;-20
2021/12/05 04:31:14;;;;;;;11.57;6.05;;;;;;;6.62;79.64;99570.69;5070831;28;20028;-20
2021/12/05 04:33:39;;;;;;;9.20;4.95;;;;;;;6.88;80.19;99595.53;5070341;28;20024;-20
2021/12/05 04:36:05;;;;;;;10.75;6.90;;;;;;;7.06;78.46;99608.16;5070455;28;20032;-20
2021/12/05 04:38:31;;;;;;;9.05;4.60;;;;;;;6.99;78.74;99608.16;5070775;28;20120;-20
2021/12/05 04:40:56;;;;;;;9.52;5.65;;;;;;;7.22;78.33;99608.50;5070591;28;20033;-20
2021/12/05 04:43:22;;;;;;;8.50;5.15;;;;;;;7.30;77.79;99606.66;5052330;28;20115;-20
2021/12/05 04:45:47;;;;;;;12.68;10.30;;;;;;;7.28;77.22;99624.63;5070589;28;20020;-20
2021/12/05 04:48:13;;;;;;;10.55;6.93;;;;;;;7.33;77.25;99635.41;5070248;28;20028;-20
2021/12/05 04:50:38;;;;;;;17.27;11.27;;;;;;;7.11;78.04;99626.88;5070250;28;20033;-20
2021/12/05 04:53:04;;;;;;;13.70;8.63;;;;;;;7.34;77.22;99629.91;5070505;28;20043;-21
2021/12/05 04:55:30;;;;;;;7.70;4.68;;;;;;;7.08;78.63;99635.28;5052193;28;20064;-20
2021/12/05 04:57:55;;;;;;;8.43;4.60;;;;;;;7.13;78.94;99641.59;5070441;28;20063;-20
2021/12/05 05:00:25;;;;;;;9.95;5.20;;;;;;;7.10;78.87;99636.69;5052310;28;20071;-21
2021/12/05 05:02:51;;;;;;;9.70;6.18;;;;;;;6.96;79.49;99624.47;5069481;28;20534;-21
2021/12/05 05:05:17;;;;;;;11.70;6.85;;;;;;;7.05;79.15;99631.22;5069982;28;20107;-21
2021/12/05 05:07:43;;;;;;;15.23;8.52;;;;;;;6.99;79.84;99629.38;5070117;28;20064;-20
2021/12/05 05:10:15;;;;;;;11.68;6.97;;;;;;;6.74;80.58;99630.00;5070053;28;20036;-20
2021/12/05 05:12:40;;;;;;;9.07;5.90;;;;;;;6.52;81.07;99618.78;5069618;28;20037;-19
2021/12/05 05:15:06;;;;;;;25.15;22.13;;;;;;;6.84;79.97;99626.94;5069793;28;20057;-21
2021/12/05 05:17:33;;;;;;;42.83;28.77;;;;;;;6.66;81.05;99646.13;5069774;28;20028;-20
2021/12/05 05:20:03;;;;;;;22.08;14.77;;;;;;;6.61;81.42;99635.28;5051871;28;20060;-20
2021/12/05 05:41:35;;;;;;;12.77;5.90;;;;;;;7.13;79.80;99678.72;5069580;28;20078;-20
2021/12/05 05:46:23;;;;;;;12.63;6.88;;;;;;;6.52;82.36;99661.19;5069263;28;20037;-20
2021/12/05 05:48:56;;;;;;;13.80;7.90;;;;;;;6.54;82.37;99674.19;5068955;28;20028;-20
2021/12/05 05:51:22;;;;;;;13.25;8.07;;;;;;;6.36;82.70;99674.81;5069095;28;20039;-20
2021/12/05 05:53:48;;;;;;;16.90;8.85;;;;;;;6.28;84.06;99675.81;5068989;28;20020;-21
2021/12/05 05:56:18;;;;;;;14.70;9.00;;;;;;;6.52;83.10;99660.34;5069171;28;20039;-20
2021/12/05 05:58:50;;;;;;;16.15;9.45;;;;;;;6.64;82.17;99656.91;5069110;28;20028;-20
2021/12/05 06:04:06;;;;;;;19.40;12.15;;;;;;;6.97;80.94;99679.94;5049000;28;20089;-21
2021/12/05 06:06:32;;;;;;;15.85;9.65;;;;;;;6.80;81.13;99676.06;5069119;28;20111;-20
2021/12/05 06:08:58;;;;;;;18.83;14.02;;;;;;;7.13;79.25;99661.97;5068928;28;20788;-20
2021/12/05 06:11:24;;;;;;;14.27;9.27;;;;;;;7.12;78.94;99653.22;5068359;28;20032;-20
2021/12/05 06:13:49;;;;;;;11.95;6.82;;;;;;;6.87;80.60;99678.75;5067473;28;20476;-21
2021/12/05 06:16:15;;;;;;;13.52;7.43;;;;;;;6.92;81.13;99692.19;5068824;28;20024;-21
2021/12/05 06:18:40;;;;;;;11.55;6.90;;;;;;;6.92;80.99;99670.97;5050683;28;20125;-20
2021/12/05 06:21:06;;;;;;;19.52;12.48;;;;;;;7.02;81.33;99682.78;5068516;28;20594;-20
2021/12/05 06:23:32;;;;;;;24.40;16.10;;;;;;;6.87;82.04;99690.16;5068362;28;20025;-20
2021/12/05 06:25:58;;;;;;;28.73;18.00;;;;;;;6.89;81.23;99676.69;5068891;28;20033;-21
2021/12/05 06:28:30;;;;;;;31.23;18.27;;;;;;;6.78;81.87;99700.13;5068405;28;20028;-20
2021/12/05 06:46:43;;;;;;;24.13;14.73;;;;;;;6.96;81.92;99711.97;5068302;28;20734;-20
2021/12/05 06:49:09;;;;;;;20.13;11.00;;;;;;;6.91;81.62;99717.06;5068131;28;20481;-20
2021/12/05 06:51:34;;;;;;;19.35;11.35;;;;;;;7.14;80.90;99721.97;5068135;28;20039;-20
2021/12/05 06:54:00;;;;;;;17.48;10.82;;;;;;;6.98;82.00;99726.63;5068307;28;20094;-20
2021/12/05 06:56:26;;;;;;;19.92;11.18;;;;;;;6.91;82.30;99728.47;5068223;28;20039;-20
2021/12/05 06:58:51;;;;;;;21.15;11.75;;;;;;;6.96;81.82;99720.72;5068281;28;20067;-20
2021/12/05 07:01:17;;;;;;;23.05;13.55;;;;;;;7.32;80.94;99729.28;5067770;28;20573;-20
2021/12/05 07:03:45;;;;;;;19.63;10.63;;;;;;;7.22;80.71;99729.69;5067899;28;20029;-20
2021/12/05 07:06:12;;;;;;;20.92;11.13;;;;;;;7.26;80.55;99717.66;5068252;28;20075;-20
2021/12/05 07:08:40;;;;;;;21.17;10.98;;;;;;;7.14;80.69;99712.16;5067935;28;20112;-20
2021/12/05 07:16:48;;;;;;;17.73;11.73;;;;;;;7.11;80.37;99723.19;5036570;28;20051;-20
2021/12/05 07:40:33;;;;;;;24.20;14.23;;;;;;;7.91;77.46;99706.31;5051327;28;20047;-20
2021/12/05 07:43:00;;;;;;;24.02;13.00;;;;;;;7.78;78.18;99723.06;5067753;28;20689;-20
2021/12/05 07:45:33;;;;;;;22.92;12.73;;;;;;;7.61;78.57;99710.25;5067649;28;20032;-20
2021/12/05 07:48:05;;;;;;;24.83;12.85;;;;;;;7.38;80.61;99712.56;5067564;28;20028;-20
2021/12/05 07:50:41;;;;;;;24.27;13.70;;;;;;;7.29;80.65;99703.97;5067504;28;20483;-20
2021/12/05 07:53:15;;;;;;;22.98;12.32;;;;;;;7.51;80.17;99712.50;5067506;28;20036;-20
2021/12/05 07:55:42;;;;;;;34.55;15.98;;;;;;;7.69;80.16;99725.13;5067299;28;20040;-20
2021/12/05 08:14:20;;;;;;;28.20;13.30;;;;;;;7.28;79.88;99702.38;5043875;28;20048;-21
2021/12/05 08:15:11;;;;;;;20.52;10.63;;;;;;;7.53;80.73;99714.97;5067139;28;20443;-20
2021/12/05 08:17:38;;;;;;;19.58;11.48;;;;;;;7.54;79.88;99711.28;5067017;28;20032;-20
2021/12/05 08:20:05;;;;;;;23.15;11.77;;;;;;;7.98;78.27;99717.69;5067536;28;20036;-20
2021/12/05 08:22:30;;;;;;;24.42;13.20;;;;;;;7.90;77.45;99720.59;5067315;28;20024;-20
2021/12/05 08:25:00;;;;;;;23.98;13.82;;;;;;;8.02;77.13;99693.16;5067006;28;20458;-20
2021/12/05 08:27:25;;;;;;;25.23;13.60;;;;;;;8.17;76.30;99690.25;5067062;28;20029;-20
2021/12/05 08:29:55;;;;;;;24.30;12.98;;;;;;;7.88;78.35;99712.81;5067151;28;20125;-21
2021/12/05 09:20:52;;;;;;;147.73;79.45;;;;;;;7.96;80.64;99670.09;5069893;28;20071;-20
2021/12/05 10:07:04;;;;;;;44.63;18.30;;;;;;;8.60;79.24;99636.44;5068311;28;20036;-20
2021/12/05 10:15:12;;;;;;;45.72;21.85;;;;;;;9.55;74.62;99624.69;5068420;28;20508;-20
2021/12/05 10:38:22;;;;;;;38.70;15.93;;;;;;;9.93;74.07;99604.13;5068466;28;20105;-20
2021/12/05 10:41:17;;;;;;;37.60;17.55;;;;;;;10.03;72.34;99610.56;5068409;28;20039;-20
2021/12/05 10:43:46;;;;;;;36.53;16.90;;;;;;;10.34;73.15;99598.03;5068338;28;20036;-20
2021/12/05 10:46:13;;;;;;;135.48;69.78;;;;;;;10.36;71.25;99595.97;5068193;28;20518;-21
2021/12/05 10:48:39;;;;;;;52.15;27.45;;;;;;;11.00;70.08;99587.31;5068454;28;20024;-21
2021/12/05 10:51:15;;;;;;;118.13;55.80;;;;;;;11.01;68.58;99580.91;5068255;28;20077;-20
2021/12/05 10:53:44;;;;;;;61.80;32.00;;;;;;;11.37;68.98;99584.34;5068127;28;20024;-20
2021/12/05 10:56:25;;;;;;;145.02;92.53;;;;;;;11.95;66.96;99586.06;5068589;28;20490;-20
2021/12/05 10:59:11;;;;;;;37.45;20.02;;;;;;;11.97;64.78;99578.59;5067413;28;20097;-20
2021/12/05 11:01:50;;;;;;;35.80;18.20;;;;;;;11.81;65.19;99565.97;5067845;28;20484;-20
2021/12/05 11:04:19;;;;;;;37.17;17.02;;;;;;;11.39;67.73;99539.53;5067971;28;20042;-20
2021/12/05 11:06:52;;;;;;;34.13;17.75;;;;;;;11.51;66.71;99568.88;5067980;28;20028;-20
2021/12/05 11:09:20;;;;;;;35.35;17.67;;;;;;;11.44;68.42;99564.47;5067849;28;20037;-20
2021/12/05 11:11:58;;;;;;;40.75;17.50;;;;;;;10.86;69.05;99563.53;5067842;28;20032;-20
2021/12/05 11:14:32;;;;;;;33.90;18.25;;;;;;;10.97;69.44;99574.41;5051031;28;20546;-20
2021/12/05 11:17:08;;;;;;;34.33;17.88;;;;;;;10.68;70.04;99570.84;5067887;28;20508;-20
2021/12/05 11:19:45;;;;;;;35.80;17.92;;;;;;;9.95;73.48;99546.13;5067535;28;20124;-20
2021/12/05 11:22:38;;;;;;;35.55;17.77;;;;;;;10.02;73.31;99558.31;5067801;28;20082;-20
2021/12/05 11:25:09;;;;;;;39.20;20.73;;;;;;;10.08;73.29;99555.78;5064625;28;20511;-20
2021/12/05 11:27:35;;;;;;;33.28;16.70;;;;;;;10.12;73.72;99532.97;5067385;28;20787;-20
2021/12/05 11:30:03;;;;;;;181.85;87.45;;;;;;;10.45;73.44;99535.94;5067718;28;20037;-21
2021/12/05 11:33:00;;;;;;;48.35;27.33;;;;;;;10.88;71.70;99535.81;5067804;28;20112;-21
2021/12/05 11:35:42;;;;;;;38.13;19.33;;;;;;;11.13;69.84;99538.19;5062023;28;20465;-21
2021/12/05 11:38:09;;;;;;;38.30;21.00;;;;;;;11.07;69.69;99534.63;5050473;28;20032;-20
2021/12/05 11:40:58;;;;;;;38.58;22.38;;;;;;;10.68;71.29;99539.63;5067629;28;20111;-20
2021/12/05 11:43:29;;;;;;;53.28;29.90;;;;;;;10.78;72.34;99533.72;5067490;28;20028;-20
2021/12/05 11:46:01;;;;;;;31.70;17.05;;;;;;;10.44;71.23;99510.31;5067467;28;20033;-20
2021/12/05 11:48:39;;;;;;;30.50;16.75;;;;;;;11.01;69.94;99514.22;5067899;28;20577;-21
2021/12/05 11:51:37;;;;;;;31.83;16.85;;;;;;;11.53;67.38;99506.16;5067592;28;20044;-20
2021/12/05 11:54:23;;;;;;;28.92;16.70;;;;;;;12.84;62.85;99499.72;5062057;28;20037;-20
2021/12/05 11:57:01;;;;;;;29.45;14.98;;;;;;;14.15;58.66;99494.41;5067647;28;20128;-20
2021/12/05 11:59:46;;;;;;;;;;;;;;;14.20;58.69;99515.09;5067541;28;20028;-20
2021/12/05 12:02:14;;;;;;;23.90;12.65;;;;;;;13.10;61.37;99491.19;5067521;28;19912;-20
2021/12/05 12:04:58;;;;;;;22.95;13.45;;;;;;;13.60;60.58;99506.25;5067304;28;20055;-20
2021/12/05 12:07:37;;;;;;;29.40;16.27;;;;;;;13.33;60.65;99492.84;5067162;28;20459;-20
2021/12/05 12:10:14;;;;;;;28.85;13.13;;;;;;;13.44;60.00;99502.59;5067155;28;20491;-20
2021/12/05 12:12:42;;;;;;;22.00;14.10;;;;;;;13.52;61.05;99507.50;5070126;28;20033;-21
2021/12/05 12:15:08;;;;;;;28.17;14.80;;;;;;;13.29;61.09;99497.88;5070914;28;20573;-20
2021/12/05 12:17:34;;;;;;;24.30;13.60;;;;;;;12.66;62.00;99489.31;5070974;28;20032;-20
2021/12/05 12:20:00;;;;;;;28.77;16.92;;;;;;;12.86;62.38;99489.56;5071076;28;20130;-20
2021/12/05 12:22:26;;;;;;;24.42;14.95;;;;;;;12.10;64.35;99485.81;5053095;28;20028;-20
2021/12/05 12:24:55;;;;;;;34.53;22.63;;;;;;;11.45;66.93;99495.88;5052842;28;20037;-20
2021/12/05 12:27:21;;;;;;;69.20;35.90;;;;;;;11.18;68.05;99480.41;5070512;28;20028;-20
2021/12/05 12:29:46;;;;;;;322.80;179.93;;;;;;;10.97;68.71;99483.72;5071007;28;20040;-20
2021/12/05 12:32:15;;;;;;;85.65;51.17;;;;;;;11.18;68.86;99493.75;5052851;28;20037;-20
2021/12/05 12:34:40;;;;;;;80.88;49.80;;;;;;;10.79;69.86;99498.84;5070651;28;20115;-20
2021/12/05 12:37:06;;;;;;;114.85;70.38;;;;;;;10.91;70.40;99506.00;5052504;28;20131;-20
2021/12/05 12:39:41;;;;;;;60.40;37.30;;;;;;;10.91;70.73;99490.81;5070455;28;20119;-21
2021/12/05 12:42:23;;;;;;;199.18;135.27;;;;;;;10.78;71.00;99499.06;5070623;28;20112;-20
2021/12/05 12:45:13;;;;;;;34.47;21.38;;;;;;;10.77;70.25;99503.59;5070787;28;20614;-20
2021/12/05 12:47:39;;;;;;;94.63;47.35;;;;;;;10.99;69.64;99502.97;5070138;28;20032;-20
2021/12/05 12:50:23;;;;;;;52.15;23.02;;;;;;;10.90;70.46;99502.50;5070329;28;20119;-20
2021/12/05 12:53:03;;;;;;;33.20;20.80;;;;;;;10.84;69.82;99493.59;5070317;28;20056;-20
2021/12/05 12:55:34;;;;;;;31.05;19.10;;;;;;;10.75;69.16;99492.34;5070306;28;20510;-20
2021/12/05 12:58:03;;;;;;;28.20;15.02;;;;;;;10.77;69.98;99484.91;5070080;28;20430;-20
2021/12/05 13:00:30;;;;;;;30.83;16.15;;;;;;;11.03;68.46;99488.94;5070176;28;20066;-20
2021/12/05 13:02:59;;;;;;;28.23;16.15;;;;;;;10.96;68.34;99487.44;5070351;28;20032;-20
2021/12/05 13:07:18;;;;;;;58.63;25.90;;;;;;;10.97;68.79;99491.72;5070220;28;20028;-20
2021/12/05 13:11:23;;;;;;;40.90;30.58;;;;;;;10.47;71.13;99510.91;5040676;28;20109;-20
2021/12/05 13:14:07;;;;;;;28.60;16.50;;;;;;;10.60;70.21;99508.00;5069881;28;20455;-20
2021/12/05 13:16:36;;;;;;;36.60;22.70;;;;;;;10.79;69.62;99501.50;5070014;28;20037;-21
2021/12/05 13:19:28;;;;;;;50.75;35.85;;;;;;;10.51;70.94;99507.53;5052283;28;20029;-20
2021/12/05 13:21:54;;;;;;;47.53;28.55;;;;;;;10.51;70.42;99501.41;5066256;28;20040;-21
2021/12/05 13:24:26;;;;;;;44.08;25.08;;;;;;;10.27;71.68;99490.69;5070225;28;20035;-20
2021/12/05 13:27:00;;;;;;;50.88;26.00;;;;;;;10.75;70.67;99508.34;5070024;28;20036;-20
2021/12/05 13:29:25;;;;;;;34.55;19.40;;;;;;;10.70;69.79;99502.88;5069656;28;20546;-20
2021/12/05 13:32:14;;;;;;;42.42;24.85;;;;;;;10.23;72.48;99489.53;5051995;28;20036;-20
2021/12/05 13:34:53;;;;;;;136.00;60.20;;;;;;;10.18;72.22;99500.09;5051538;28;20499;-20
2021/12/05 13:37:21;;;;;;;62.35;32.65;;;;;;;10.36;72.13;99510.66;5069620;28;20033;-20
2021/12/05 13:39:52;;;;;;;30.27;17.48;;;;;;;10.18;73.27;99514.22;5069448;28;20024;-20
2021/12/05 13:42:25;;;;;;;27.02;14.45;;;;;;;10.40;71.91;99511.84;5069796;28;20131;-20
2021/12/05 13:44:59;;;;;;;45.08;22.27;;;;;;;10.54;71.54;99501.75;5069463;28;20214;-20
2021/12/05 13:47:31;;;;;;;97.35;39.83;;;;;;;10.13;73.60;99500.75;5069193;28;20403;-20
2021/12/05 13:49:58;;;;;;;40.25;20.90;;;;;;;9.54;75.71;99497.13;5069308;28;20111;-21
2021/12/05 13:52:35;;;;;;;43.53;21.48;;;;;;;9.16;77.89;99474.31;5069292;28;20028;-20
2021/12/05 13:55:41;;;;;;;43.63;22.58;;;;;;;9.07;78.88;99508.34;5069257;28;20497;-20
2021/12/05 13:58:38;;;;;;;45.08;20.88;;;;;;;8.75;80.17;99489.91;5069169;28;20028;-19
2021/12/05 14:01:22;;;;;;;40.72;21.48;;;;;;;9.08;79.41;99511.84;5069138;28;20103;-21
2021/12/05 14:03:50;;;;;;;47.42;22.80;;;;;;;9.02;80.50;99522.31;5069324;28;20075;-20
2021/12/05 14:07:01;;;;;;;58.25;32.92;;;;;;;9.16;79.60;99523.00;5069019;28;20037;-20
2021/12/05 14:09:35;;;;;;;55.15;29.17;;;;;;;9.44;78.52;99519.78;5006564;28;20045;-20
2021/12/05 14:12:30;;;;;;;46.42;25.40;;;;;;;9.25;79.17;99520.84;5064023;28;20047;-20
2021/12/05 14:14:59;;;;;;;52.42;27.73;;;;;;;9.13;79.13;99496.00;5068523;28;20067;-20
2021/12/05 14:17:30;;;;;;;44.72;21.50;;;;;;;9.13;79.76;99506.66;5068777;28;20028;-20
2021/12/05 14:20:17;;;;;;;41.70;20.33;;;;;;;8.81;81.04;99510.28;5068810;28;20036;-20
2021/12/05 14:22:43;;;;;;;39.65;18.70;;;;;;;8.63;81.61;99510.28;5068917;28;20036;-20
2021/12/05 14:25:11;;;;;;;45.33;21.35;;;;;;;8.72;81.94;99506.28;5068608;28;20557;-20
2021/12/05 14:27:39;;;;;;;47.55;29.35;;;;;;;8.93;80.94;99505.06;5068335;28;20029;-21
2021/12/05 14:30:05;;;;;;;70.83;50.93;;;;;;;9.11;80.01;99506.06;5068789;28;20047;-20
2021/12/05 14:32:33;;;;;;;42.88;24.92;;;;;;;9.23;79.45;99502.44;5068669;28;20259;-20
2021/12/05 14:35:20;;;;;;;46.65;27.75;;;;;;;9.32;78.96;99496.81;5067710;28;20082;-20
2021/12/05 14:37:46;;;;;;;89.72;61.85;;;;;;;9.28;78.78;99503.63;5050716;28;20036;-20
2021/12/05 14:40:16;;;;;;;137.73;89.00;;;;;;;9.10;79.33;99502.59;5068491;28;20036;-20
2021/12/05 14:42:43;;;;;;;115.95;62.58;;;;;;;9.17;78.80;99507.84;5068778;28;20162;-20
2021/12/05 14:45:19;;;;;;;83.20;52.88;;;;;;;9.47;78.17;99509.72;5068798;28;20032;-19
2021/12/05 14:47:45;;;;;;;55.83;34.00;;;;;;;9.30;78.18;99496.22;5068522;28;20040;-21
2021/12/05 14:50:22;;;;;;;58.03;37.75;;;;;;;9.31;78.70;99506.63;5068254;28;20033;-20
2021/12/05 14:52:49;;;;;;;93.32;66.72;;;;;;;9.55;77.24;99496.91;5068185;28;20037;-20
2021/12/05 14:55:17;;;;;;;55.63;35.72;;;;;;;9.49;77.36;99489.81;5068074;28;20078;-20
2021/12/05 14:57:44;;;;;;;68.88;46.47;;;;;;;9.75;76.67;99517.94;5068130;28;20043;-20
2021/12/05 15:00:10;;;;;;;56.30;34.53;;;;;;;9.70;77.37;99511.66;5050224;28;20054;-21
2021/12/05 15:02:36;;;;;;;95.85;64.93;;;;;;;9.81;76.51;99514.38;5067959;28;20754;-20
2021/12/05 15:05:01;;;;;;;58.05;34.30;;;;;;;9.68;76.60;99513.72;5067956;28;20032;-20
2021/12/05 15:07:27;;;;;;;57.38;34.35;;;;;;;9.42;77.93;99505.09;5067495;28;20568;-20
2021/12/05 15:09:54;;;;;;;60.80;37.78;;;;;;;9.70;76.93;99511.66;5068095;28;20043;-20
2021/12/05 15:12:30;;;;;;;58.30;34.03;;;;;;;9.71;75.78;99518.63;5049818;28;20042;-20
2021/12/05 15:15:02;;;;;;;104.88;58.25;;;;;;;9.82;75.60;99520.50;5067662;28;20391;-20
2021/12/05 15:17:32;;;;;;;42.85;24.55;;;;;;;9.70;76.50;99523.09;5067050;28;20047;-20
2021/12/05 15:20:01;;;;;;;67.43;46.58;;;;;;;9.71;75.97;99523.94;5068214;28;20547;-20
2021/12/05 15:22:27;;;;;;;43.10;25.23;;;;;;;9.81;75.86;99525.00;5067648;28;20036;-20
2021/12/05 15:25:00;;;;;;;49.08;29.33;;;;;;;9.42;76.63;99515.72;5067990;28;20044;-20
2021/12/05 15:27:27;;;;;;;54.20;34.65;;;;;;;9.27;77.88;99531.25;5049731;28;20086;-20
2021/12/05 15:29:58;;;;;;;77.35;42.53;;;;;;;9.01;78.42;99509.25;5067961;28;20036;-20
2021/12/05 15:32:25;;;;;;;121.53;77.65;;;;;;;9.47;77.84;99529.16;5067622;28;20032;-20
2021/12/05 15:34:53;;;;;;;80.32;45.40;;;;;;;9.56;77.32;99522.50;5067975;28;20029;-21
2021/12/05 15:37:19;;;;;;;127.05;65.88;;;;;;;9.59;77.27;99527.34;5067211;28;20111;-20
2021/12/05 15:39:45;;;;;;;96.22;46.72;;;;;;;9.43;77.43;99527.97;5067820;28;20419;-20
2021/12/05 15:42:28;;;;;;;50.65;27.25;;;;;;;9.42;77.97;99518.38;5067702;28;20024;-20
2021/12/05 15:44:55;;;;;;;85.38;41.13;;;;;;;9.47;78.22;99537.16;5067916;28;20078;-20
2021/12/05 15:47:22;;;;;;;64.55;34.05;;;;;;;9.56;77.51;99529.66;5071450;28;20032;-20
2021/12/05 15:49:53;;;;;;;55.57;29.60;;;;;;;9.29;78.72;99534.50;5079126;28;20476;-20
2021/12/05 15:52:21;;;;;;;66.47;33.03;;;;;;;9.76;77.21;99529.38;5053654;28;20036;-20
2021/12/05 15:54:47;;;;;;;61.55;32.63;;;;;;;9.48;78.08;99529.97;5071435;28;20488;-21
2021/12/05 15:57:22;;;;;;;179.85;94.30;;;;;;;9.63;77.47;99547.16;5053599;28;20038;-20
2021/12/05 15:59:49;;;;;;;63.13;36.50;;;;;;;9.75;76.87;99514.47;5054260;28;20025;-20
2021/12/05 16:02:18;;;;;;;84.50;48.40;;;;;;;9.86;76.40;99516.34;5053172;28;20039;-20
2021/12/05 16:04:44;;;;;;;84.88;48.25;;;;;;;10.12;76.13;99530.31;5071023;28;20080;-20
2021/12/05 16:07:10;;;;;;;73.70;39.58;;;;;;;9.92;76.10;99523.41;5071329;28;20063;-20
2021/12/05 16:09:37;;;;;;;49.90;27.27;;;;;;;10.03;75.17;99543.97;5070830;28;20043;-20
2021/12/05 16:12:11;;;;;;;69.65;46.13;;;;;;;10.08;75.25;99534.47;5071171;28;20036;-20
2021/12/05 16:14:42;;;;;;;68.25;43.42;;;;;;;10.06;75.12;99535.50;5070678;28;20064;-21
2021/12/05 16:17:25;;;;;;;71.85;39.45;;;;;;;9.74;76.66;99518.97;5071498;28;20039;-20
2021/12/05 16:20:11;;;;;;;144.82;84.53;;;;;;;9.94;75.85;99541.84;5071005;28;20031;-20
2021/12/05 16:23:02;;;;;;;127.47;72.88;;;;;;;10.17;74.81;99539.22;5071255;28;20108;-21
2021/12/05 16:25:28;;;;;;;119.78;65.85;;;;;;;10.20;74.88;99533.44;5070851;28;20166;-21
2021/12/05 16:27:59;;;;;;;133.20;74.15;;;;;;;10.30;74.79;99542.75;5070942;28;20103;-20
2021/12/05 16:30:26;;;;;;;209.55;119.80;;;;;;;10.18;75.35;99548.03;5053341;28;20036;-20
2021/12/05 16:32:52;;;;;;;88.57;52.28;;;;;;;10.04;75.99;99540.25;5053109;28;20040;-20
2021/12/05 16:35:35;;;;;;;82.88;49.85;;;;;;;9.93;76.15;99543.69;5052411;28;20028;-21
2021/12/05 16:38:02;;;;;;;50.10;25.85;;;;;;;9.90;76.49;99552.13;5071013;28;20370;-20
2021/12/05 16:40:49;;;;;;;54.65;30.73;;;;;;;9.42;78.31;99542.34;5052905;28;20845;-20
2021/12/05 16:43:15;;;;;;;47.25;24.35;;;;;;;9.41;79.48;99551.34;5055691;28;20032;-20
2021/12/05 16:45:41;;;;;;;47.42;26.05;;;;;;;9.61;77.86;99527.94;5035366;28;20420;-20
2021/12/05 16:48:07;;;;;;;81.28;47.60;;;;;;;10.03;76.17;99543.13;5070831;28;20491;-19
2021/12/05 16:50:32;;;;;;;50.05;28.88;;;;;;;9.83;76.88;99535.44;5052397;28;20032;-20
2021/12/05 16:52:58;;;;;;;51.83;29.63;;;;;;;9.95;77.12;99548.78;5070709;28;20044;-24
2021/12/05 16:55:27;;;;;;;59.20;33.30;;;;;;;9.95;76.78;99546.94;5070247;28;20032;-21
2021/12/05 16:58:02;;;;;;;78.25;45.22;;;;;;;9.93;76.80;99546.38;5077797;28;20042;-21